createdAt,value
2022-09-05T00:00:12.353Z,33.25
2022-09-05T00:02:48.745Z,33.23
2022-09-05T00:05:41.279Z,33.43
2022-09-05T00:08:39.884Z,33.33
2022-09-05T00:11:43.176Z,33.37
2022-09-05T00:15:14.320Z,33.33
2022-09-05T00:17:35.621Z,33.26
2022-09-05T00:24:26.249Z,33.50
2022-09-05T00:24:37.724Z,33.33
2022-09-05T00:26:56.781Z,33.54
2022-09-05T00:31:08.780Z,33.38
2022-09-05T00:33:17.506Z,33.52
2022-09-05T00:36:02.250Z,33.38
2022-09-05T00:38:36.530Z,33.74
2022-09-05T00:41:08.378Z,33.73
2022-09-05T00:43:37.631Z,33.75
2022-09-05T00:46:15.824Z,33.48
2022-09-05T00:48:49.201Z,33.59
2022-09-05T00:51:34.791Z,33.80
2022-09-05T00:54:01.721Z,33.63
2022-09-05T00:56:53.404Z,33.89
2022-09-05T00:59:58.472Z,33.86
2022-09-05T01:02:51.991Z,33.82
2022-09-05T01:05:53.190Z,34.02
2022-09-05T01:08:45.128Z,33.88
2022-09-05T01:11:12.058Z,34.00
2022-09-05T01:14:16.325Z,33.84
2022-09-05T01:17:04.605Z,33.91
2022-09-05T01:19:56.152Z,34.07
2022-09-05T01:22:48.233Z,33.72
2022-09-05T01:25:31.438Z,33.98
2022-09-05T01:29:13.421Z,33.78
2022-09-05T01:31:07.446Z,33.75
2022-09-05T01:33:54.379Z,33.95
2022-09-05T01:36:42.386Z,34.08
2022-09-05T01:39:53.598Z,34.17
2022-09-05T01:42:32.617Z,33.95
2022-09-05T01:45:04.452Z,34.06
2022-09-05T01:47:45.421Z,34.08
2022-09-05T01:50:17.184Z,34.04
2022-09-05T01:53:08.458Z,34.02
2022-09-05T01:56:18.215Z,34.38
2022-09-05T01:58:55.416Z,34.15
2022-09-05T02:04:35.620Z,34.24
2022-09-05T02:07:30.048Z,34.36
2022-09-05T02:10:24.487Z,34.58
2022-09-05T02:13:03.917Z,34.23
2022-09-05T02:15:40.487Z,34.72
2022-09-05T02:18:14.843Z,34.43
2022-09-05T02:20:41.475Z,34.69
2022-09-05T02:23:24.770Z,34.46
2022-09-05T02:26:18.738Z,34.54
2022-09-05T02:28:56.211Z,34.70
2022-09-05T02:31:37.361Z,34.59
2022-09-05T02:34:09.834Z,34.52
2022-09-05T02:36:54.766Z,34.69
2022-09-05T02:45:03.804Z,34.53
2022-09-05T02:45:18.371Z,34.89
2022-09-05T02:45:54.129Z,34.81
2022-09-05T02:48:31.960Z,34.83
2022-09-05T02:57:24.636Z,35.02
2022-09-05T02:57:32.760Z,34.88
2022-09-05T02:58:06.930Z,35.09
2022-09-05T03:00:35.325Z,34.86
2022-09-05T03:03:30.775Z,34.91
2022-09-05T03:06:34.451Z,35.01
2022-09-05T03:09:17.202Z,35.23
2022-09-05T03:12:29.179Z,35.27
2022-09-05T03:15:22.249Z,35.06
2022-09-05T03:18:19.979Z,35.04
2022-09-05T03:20:54.332Z,35.19
2022-09-05T03:24:04.192Z,35.36
2022-09-05T03:27:01.163Z,35.04
2022-09-05T03:30:05.640Z,35.32
2022-09-05T03:32:57.100Z,35.23
2022-09-05T03:35:54.756Z,35.26
2022-09-05T03:39:02.676Z,35.25
2022-09-05T03:41:40.541Z,35.43
2022-09-05T03:44:37.961Z,35.55
2022-09-05T03:47:36.650Z,35.10
2022-09-05T03:57:05.493Z,35.28
2022-09-05T03:57:22.671Z,35.55
2022-09-05T03:57:27.026Z,35.66
2022-09-05T04:00:06.187Z,35.56
2022-09-05T04:07:03.583Z,35.63
2022-09-05T04:08:15.465Z,35.63
2022-09-05T04:08:36.966Z,35.78
2022-09-05T04:11:30.497Z,35.75
2022-09-05T04:14:02.884Z,35.94
2022-09-05T04:16:32.602Z,35.65
2022-09-05T04:19:20.257Z,35.89
2022-09-05T04:21:51.907Z,35.65
2022-09-05T04:24:53.034Z,35.55
2022-09-05T04:27:40.485Z,35.96
2022-09-05T04:30:39.920Z,36.06
2022-09-05T04:33:35.956Z,35.97
2022-09-05T04:36:33.513Z,35.82
2022-09-05T04:39:19.872Z,35.91
2022-09-05T04:41:51.897Z,36.06
2022-09-05T04:44:40.634Z,36.26
2022-09-05T04:47:18.931Z,36.14
2022-09-05T04:49:54.520Z,36.00
2022-09-05T04:52:39.423Z,36.36
2022-09-05T04:55:10.949Z,36.16
2022-09-05T04:57:46.478Z,36.39
2022-09-05T05:05:59.244Z,36.22
2022-09-05T05:06:17.543Z,36.25
2022-09-05T05:06:45.049Z,36.23
2022-09-05T05:09:18.984Z,36.33
2022-09-05T05:18:03.037Z,36.32
2022-09-05T05:18:06.170Z,36.44
2022-09-05T05:18:14.521Z,36.44
2022-09-05T05:20:49.552Z,36.73
2022-09-05T05:23:18.637Z,36.62
2022-09-05T05:25:54.503Z,36.72
2022-09-05T05:28:50.517Z,36.96
2022-09-05T05:31:20.712Z,37.06
2022-09-05T05:33:49.897Z,36.82
2022-09-05T05:36:22.542Z,36.97
2022-09-05T05:39:00.947Z,37.06
2022-09-05T05:41:37.536Z,36.96
2022-09-05T05:44:13.291Z,36.99
2022-09-05T05:46:42.497Z,37.13
2022-09-05T05:49:24.739Z,36.84
2022-09-05T05:52:33.555Z,37.02
2022-09-05T05:55:50.882Z,37.19
2022-09-05T05:58:15.856Z,36.84
2022-09-05T06:01:02.936Z,37.31
2022-09-05T06:03:57.485Z,37.21
2022-09-05T06:06:37.574Z,37.07
2022-09-05T06:14:47.950Z,37.02
2022-09-05T06:15:01.922Z,37.20
2022-09-05T06:16:09.803Z,37.34
2022-09-05T06:19:14.105Z,37.16
2022-09-05T06:22:14.962Z,37.52
2022-09-05T06:25:17.602Z,37.09
2022-09-05T06:28:19.130Z,37.41
2022-09-05T06:31:28.970Z,37.05
2022-09-05T06:34:07.909Z,37.16
2022-09-05T06:36:58.832Z,37.05
2022-09-05T06:39:50.885Z,37.01
2022-09-05T06:42:56.222Z,36.99
2022-09-05T06:45:46.654Z,37.12
2022-09-05T06:48:21.484Z,37.07
2022-09-05T06:51:37.731Z,37.13
2022-09-05T06:54:32.204Z,37.18
2022-09-05T06:57:30.578Z,37.20
2022-09-05T07:00:22.708Z,37.15
2022-09-05T07:03:27.480Z,37.05
2022-09-05T07:06:24.270Z,36.86
2022-09-05T07:09:16.039Z,37.01
2022-09-05T07:12:03.828Z,36.77
2022-09-05T07:14:34.471Z,37.03
2022-09-05T07:17:07.106Z,36.93
2022-09-05T07:19:54.867Z,36.92
2022-09-05T07:22:50.707Z,37.08
2022-09-05T07:25:20.199Z,36.84
2022-09-05T07:28:29.223Z,37.14
2022-09-05T07:30:50.560Z,37.05
2022-09-05T07:33:20.649Z,36.89
2022-09-05T07:35:47.603Z,36.90
2022-09-05T07:38:26.696Z,36.50
2022-09-05T07:41:26.657Z,36.05
2022-09-05T07:43:57.885Z,35.74
2022-09-05T07:46:32.327Z,35.56
2022-09-05T07:49:02.839Z,35.34
2022-09-05T07:56:56.490Z,35.79
2022-09-05T07:57:07.929Z,35.38
2022-09-05T07:57:30.931Z,35.59
2022-09-05T08:00:26.124Z,35.13
2022-09-05T08:02:55.050Z,34.82
2022-09-05T08:05:34.666Z,34.74
2022-09-05T08:08:06.515Z,34.41
2022-09-05T08:11:22.552Z,35.20
2022-09-05T08:13:46.236Z,35.12
2022-09-05T08:16:16.192Z,35.13
2022-09-05T08:18:50.780Z,35.37
2022-09-05T08:21:45.495Z,35.44
2022-09-05T08:24:21.082Z,35.33
2022-09-05T08:26:52.782Z,35.62
2022-09-05T08:29:33.483Z,35.58
2022-09-05T08:32:09.656Z,35.61
2022-09-05T08:34:56.380Z,36.04
2022-09-05T08:37:25.784Z,35.97
2022-09-05T08:39:59.105Z,35.83
2022-09-05T08:42:44.007Z,35.80
2022-09-05T08:46:42.192Z,35.88
2022-09-05T08:48:40.018Z,35.82
2022-09-05T08:51:22.348Z,35.91
2022-09-05T08:53:54.999Z,35.69
2022-09-05T08:56:30.880Z,35.73
2022-09-05T08:59:28.020Z,36.21
2022-09-05T09:02:44.686Z,36.15
2022-09-05T09:05:07.529Z,35.87
2022-09-05T09:07:51.047Z,36.08
2022-09-05T09:10:35.738Z,36.04
2022-09-05T09:13:14.800Z,35.98
2022-09-05T09:15:47.046Z,35.72
2022-09-05T09:18:18.764Z,35.70
2022-09-05T09:20:52.828Z,35.96
2022-09-05T09:23:44.797Z,35.45
2022-09-05T09:26:15.846Z,35.51
2022-09-05T09:28:49.646Z,35.78
2022-09-05T09:31:22.457Z,35.62
2022-09-05T09:33:59.974Z,35.23
2022-09-05T09:36:53.528Z,35.40
2022-09-05T09:39:48.287Z,35.27
2022-09-05T09:42:45.456Z,35.01
2022-09-05T09:45:30.043Z,35.18
2022-09-05T09:48:34.587Z,35.02
2022-09-05T09:51:30.753Z,35.33
2022-09-05T09:54:20.202Z,35.23
2022-09-05T09:57:11.727Z,35.02
2022-09-05T10:00:04.595Z,34.80
2022-09-05T10:04:31.170Z,34.99
2022-09-05T10:10:34.719Z,34.81
2022-09-05T10:10:53.557Z,34.94
2022-09-05T10:12:33.158Z,34.50
2022-09-05T10:15:31.389Z,34.68
2022-09-05T10:18:24.272Z,34.63
2022-09-05T10:21:17.852Z,34.59
2022-09-05T10:23:53.690Z,34.68
2022-09-05T10:26:58.112Z,34.63
2022-09-05T10:29:55.105Z,34.32
2022-09-05T10:35:04.510Z,34.46
2022-09-05T10:35:31.554Z,34.09
2022-09-05T10:38:20.481Z,34.34
2022-09-05T10:41:14.663Z,34.17
2022-09-05T10:43:53.209Z,34.27
2022-09-05T10:46:51.293Z,34.27
2022-09-05T10:49:24.503Z,34.35
2022-09-05T10:52:19.287Z,33.94
2022-09-05T10:55:14.261Z,34.07
2022-09-05T10:58:16.468Z,33.85
2022-09-05T11:02:28.440Z,34.03
2022-09-05T11:04:52.600Z,34.00
2022-09-05T11:07:43.768Z,33.89
2022-09-05T11:10:20.215Z,33.98
2022-09-05T11:13:21.531Z,33.89
2022-09-05T11:16:19.423Z,33.79
2022-09-05T11:18:56.375Z,34.00
2022-09-05T11:21:30.469Z,33.88
2022-09-05T11:24:27.132Z,33.76
2022-09-05T11:27:36.657Z,33.52
2022-09-05T11:30:30.569Z,33.63
2022-09-05T11:39:48.206Z,33.80
2022-09-05T11:40:00.459Z,33.83
2022-09-05T11:40:09.970Z,33.86
2022-09-05T11:42:46.020Z,33.95
2022-09-05T11:45:38.584Z,33.58
2022-09-05T11:48:53.024Z,33.75
2022-09-05T11:52:08.469Z,33.70
2022-09-05T11:55:20.685Z,33.56
2022-09-05T11:58:44.962Z,33.61
2022-09-05T12:01:36.857Z,33.65
2022-09-05T12:07:52.066Z,33.53
2022-09-05T12:10:47.446Z,33.39
2022-09-05T12:13:21.678Z,33.39
2022-09-05T12:16:07.233Z,33.49
2022-09-05T12:18:43.709Z,33.27
2022-09-05T12:21:38.111Z,33.40
2022-09-05T12:25:15.499Z,33.14
2022-09-05T12:27:41.954Z,33.22
2022-09-05T12:30:06.049Z,33.17
2022-09-05T12:34:46.668Z,33.33
2022-09-05T12:36:12.902Z,32.90
2022-09-05T12:41:33.092Z,32.93
2022-09-05T12:41:40.879Z,33.82
2022-09-05T12:41:43.039Z,32.63
2022-09-05T12:44:38.931Z,32.89
2022-09-05T12:47:16.601Z,32.62
2022-09-05T12:49:55.381Z,32.90
2022-09-05T12:52:33.868Z,32.78
2022-09-05T12:55:09.251Z,32.90
2022-09-05T13:02:56.547Z,32.89
2022-09-05T13:03:13.135Z,33.01
2022-09-05T13:03:31.671Z,32.45
2022-09-05T13:06:05.199Z,32.60
2022-09-05T13:08:47.244Z,32.19
2022-09-05T13:14:53.612Z,32.55
2022-09-05T13:14:54.646Z,32.14
2022-09-05T13:17:15.723Z,32.56
2022-09-05T13:19:47.385Z,32.51
2022-09-05T13:22:15.490Z,32.02
2022-09-05T13:24:46.651Z,32.05
2022-09-05T13:27:16.345Z,32.39
2022-09-05T13:31:40.707Z,32.29
2022-09-05T13:37:54.693Z,32.23
2022-09-05T13:38:11.510Z,31.61
2022-09-05T13:38:55.838Z,32.05
2022-09-05T13:41:28.436Z,31.86
2022-09-05T13:44:24.912Z,32.06
2022-09-05T13:47:22.025Z,31.77
2022-09-05T13:50:13.537Z,31.97
2022-09-05T13:52:44.593Z,31.42
2022-09-05T13:55:29.718Z,31.30
2022-09-05T13:58:21.458Z,31.23
2022-09-05T14:01:01.049Z,31.13
2022-09-05T14:03:40.140Z,31.09
2022-09-05T14:06:48.665Z,31.46
2022-09-05T14:09:46.435Z,31.21
2022-09-05T14:12:38.064Z,30.92
2022-09-05T14:15:13.827Z,31.20
2022-09-05T14:17:55.658Z,30.88
2022-09-05T14:20:44.442Z,30.75
2022-09-05T14:23:17.719Z,30.70
2022-09-05T14:25:52.436Z,30.71
2022-09-05T14:28:27.330Z,30.91
2022-09-05T14:37:40.950Z,30.50
2022-09-05T14:37:43.109Z,30.36
2022-09-05T14:37:55.080Z,30.61
2022-09-05T14:40:43.459Z,30.43
2022-09-05T14:43:48.050Z,30.28
2022-09-05T14:46:38.922Z,30.74
2022-09-05T14:49:18.489Z,30.12
2022-09-05T14:51:47.089Z,30.40
2022-09-05T15:00:38.640Z,30.31
2022-09-05T15:02:42.986Z,30.23
2022-09-05T15:03:03.745Z,30.34
2022-09-05T15:05:31.437Z,30.44
2022-09-05T15:08:03.960Z,30.44
2022-09-05T15:12:16.181Z,30.47
2022-09-05T15:14:03.654Z,30.16
2022-09-05T15:16:45.622Z,30.18
2022-09-05T15:20:06.151Z,30.25
2022-09-05T15:22:43.639Z,30.30
2022-09-05T15:25:23.700Z,30.11
2022-09-05T15:27:51.159Z,30.32
2022-09-05T15:30:35.191Z,30.30
2022-09-05T15:33:14.530Z,30.41
2022-09-05T15:35:43.768Z,30.41
2022-09-05T15:38:28.800Z,30.12
2022-09-05T15:41:23.815Z,30.36
2022-09-05T15:44:01.853Z,30.28
2022-09-05T15:46:46.181Z,30.06
2022-09-05T15:49:25.571Z,30.19
2022-09-05T15:51:55.701Z,30.17
2022-09-05T15:54:37.344Z,30.21
2022-09-05T15:57:08.812Z,30.09
2022-09-05T15:59:47.190Z,30.13
2022-09-05T16:02:25.895Z,29.98
2022-09-05T16:07:42.973Z,30.16
2022-09-05T16:10:35.548Z,30.12
2022-09-05T16:14:39.738Z,30.27
2022-09-05T16:23:15.046Z,30.29
2022-09-05T16:23:17.310Z,30.06
2022-09-05T16:23:41.768Z,30.30
2022-09-05T16:26:26.104Z,30.14
2022-09-05T16:29:06.394Z,29.99
2022-09-05T16:31:47.105Z,30.27
2022-09-05T16:34:45.491Z,30.22
2022-09-05T16:37:14.021Z,30.14
2022-09-05T16:39:47.248Z,30.07
2022-09-05T16:42:30.822Z,30.07
2022-09-05T16:45:18.738Z,29.90
2022-09-05T16:48:06.673Z,30.04
2022-09-05T16:51:15.477Z,30.12
2022-09-05T16:53:58.346Z,30.27
2022-09-05T16:56:33.898Z,30.13
2022-09-05T16:59:10.410Z,30.35
2022-09-05T17:02:06.129Z,30.20
2022-09-05T17:05:03.172Z,30.22
2022-09-05T17:07:42.087Z,30.28
2022-09-05T17:10:17.024Z,30.30
2022-09-05T17:12:44.105Z,30.20
2022-09-05T17:15:14.819Z,30.13
2022-09-05T17:18:20.699Z,30.26
2022-09-05T17:20:53.502Z,30.16
2022-09-05T17:29:19.469Z,30.11
2022-09-05T17:29:34.486Z,30.23
2022-09-05T17:32:48.223Z,30.45
2022-09-05T17:35:48.532Z,30.31
2022-09-05T17:38:41.168Z,30.33
2022-09-05T17:41:52.972Z,30.38
2022-09-05T17:44:28.761Z,30.40
2022-09-05T17:47:07.043Z,30.57
2022-09-05T17:49:42.935Z,30.28
2022-09-05T17:52:18.665Z,30.55
2022-09-05T17:54:49.478Z,30.50
2022-09-05T17:57:29.143Z,30.57
2022-09-05T18:00:00.856Z,30.33
2022-09-05T18:02:53.722Z,30.53
2022-09-05T18:05:54.494Z,30.58
2022-09-05T18:08:44.892Z,30.40
2022-09-05T18:11:17.993Z,30.81
2022-09-05T18:14:02.660Z,30.69
2022-09-05T18:16:43.720Z,30.80
2022-09-05T18:19:36.561Z,30.55
2022-09-05T18:22:19.437Z,30.71
2022-09-05T18:24:51.538Z,30.63
2022-09-05T18:27:39.367Z,30.60
2022-09-05T18:30:12.040Z,30.96
2022-09-05T18:32:45.091Z,30.80
2022-09-05T18:35:15.593Z,31.14
2022-09-05T18:38:04.430Z,31.19
2022-09-05T18:41:02.014Z,30.87
2022-09-05T18:43:37.973Z,31.16
2022-09-05T18:46:25.649Z,31.15
2022-09-05T18:49:18.002Z,31.43
2022-09-05T18:52:03.683Z,31.29
2022-09-05T18:54:33.533Z,31.12
2022-09-05T18:57:26.150Z,31.08
2022-09-05T18:59:51.849Z,31.35
2022-09-05T19:02:51.502Z,31.25
2022-09-05T19:05:37.445Z,31.68
2022-09-05T19:08:28.742Z,31.47
2022-09-05T19:10:58.895Z,31.72
2022-09-05T19:13:34.131Z,31.44
2022-09-05T19:16:42.465Z,31.40
2022-09-05T19:19:16.398Z,31.69
2022-09-05T19:22:32.008Z,31.60
2022-09-05T19:24:45.217Z,31.59
2022-09-05T19:28:29.218Z,31.43
2022-09-05T19:36:59.987Z,31.49
2022-09-05T19:37:03.612Z,31.55
2022-09-05T19:37:05.765Z,31.79
2022-09-05T19:38:23.212Z,31.62
2022-09-05T19:46:41.619Z,31.43
2022-09-05T19:47:42.806Z,31.92
2022-09-05T19:47:55.889Z,31.86
2022-09-05T19:49:13.004Z,31.64
2022-09-05T19:51:43.672Z,31.51
2022-09-05T19:54:28.277Z,31.98
2022-09-05T19:57:00.737Z,31.85
2022-09-05T19:59:34.274Z,31.83
2022-09-05T20:02:02.290Z,31.83
2022-09-05T20:04:36.801Z,31.75
2022-09-05T20:07:15.389Z,31.67
2022-09-05T20:09:44.308Z,31.83
2022-09-05T20:12:29.950Z,31.68
2022-09-05T20:14:57.779Z,32.00
2022-09-05T20:17:30.993Z,31.82
2022-09-05T20:20:11.228Z,32.05
2022-09-05T20:22:49.074Z,31.92
2022-09-05T20:25:39.815Z,32.22
2022-09-05T20:28:10.653Z,32.15
2022-09-05T20:30:42.348Z,32.21
2022-09-05T20:33:27.575Z,32.25
2022-09-05T20:39:42.367Z,32.15
2022-09-05T20:43:15.705Z,32.34
2022-09-05T20:43:32.089Z,31.90
2022-09-05T20:44:58.805Z,31.92
2022-09-05T20:49:44.858Z,32.36
2022-09-05T20:54:15.604Z,32.13
2022-09-05T20:54:31.801Z,31.96
2022-09-05T20:56:30.736Z,32.45
2022-09-05T20:59:00.870Z,32.13
2022-09-05T21:01:32.213Z,32.43
2022-09-05T21:04:04.300Z,32.55
2022-09-05T21:06:41.378Z,32.50
2022-09-05T21:09:08.053Z,32.36
2022-09-05T21:11:34.791Z,32.24
2022-09-05T21:14:04.311Z,32.21
2022-09-05T21:16:35.647Z,32.70
2022-09-05T21:19:02.551Z,32.64
2022-09-05T21:21:31.492Z,32.61
2022-09-05T21:24:16.279Z,32.52
2022-09-05T21:26:46.573Z,32.67
2022-09-05T21:29:16.506Z,32.50
2022-09-05T21:31:46.295Z,32.44
2022-09-05T21:34:22.943Z,32.64
2022-09-05T21:37:06.371Z,32.66
2022-09-05T21:39:59.894Z,32.77
2022-09-05T21:44:25.405Z,32.73
2022-09-05T21:47:40.314Z,33.17
2022-09-05T21:48:06.476Z,33.06
2022-09-05T21:50:39.105Z,32.70
2022-09-05T21:53:46.947Z,32.83
2022-09-05T21:59:26.557Z,32.97
2022-09-05T21:59:33.302Z,33.07
2022-09-05T22:01:51.770Z,33.02
2022-09-05T22:04:18.911Z,33.17
2022-09-05T22:06:48.145Z,33.25
2022-09-05T22:09:19.697Z,33.23
2022-09-05T22:11:50.265Z,33.27
2022-09-05T22:14:19.374Z,33.33
2022-09-05T22:16:47.408Z,33.32
2022-09-05T22:19:22.302Z,33.42
2022-09-05T22:21:50.541Z,33.36
2022-09-05T22:24:17.699Z,33.46
2022-09-05T22:27:11.767Z,33.29
2022-09-05T22:29:35.363Z,33.34
2022-09-05T22:32:02.190Z,33.34
2022-09-05T22:34:28.981Z,33.59
2022-09-05T22:36:56.059Z,33.40
2022-09-05T22:39:36.525Z,33.48
2022-09-05T22:42:10.101Z,33.79
2022-09-05T22:44:41.166Z,33.94
2022-09-05T22:47:11.285Z,33.92
2022-09-05T22:49:38.055Z,33.91
2022-09-05T22:52:06.270Z,33.64
2022-09-05T22:54:33.758Z,33.81
2022-09-05T22:57:00.537Z,33.92
2022-09-05T22:59:27.313Z,33.95
2022-09-05T23:01:54.114Z,34.12
2022-09-05T23:04:20.968Z,33.90
2022-09-05T23:06:47.825Z,33.66
2022-09-05T23:09:14.571Z,33.86
2022-09-05T23:11:41.387Z,33.96
2022-09-05T23:14:08.136Z,34.00
2022-09-05T23:16:34.858Z,34.11
2022-09-05T23:19:01.627Z,34.04
2022-09-05T23:21:28.363Z,33.93
2022-09-05T23:23:55.099Z,34.01
2022-09-05T23:26:22.285Z,34.12
2022-09-05T23:28:49.042Z,34.29
2022-09-05T23:31:15.899Z,34.29
2022-09-05T23:33:42.724Z,34.46
2022-09-05T23:36:12.527Z,34.44
2022-09-05T23:38:41.324Z,34.32
2022-09-05T23:41:14.172Z,34.71
2022-09-05T23:43:40.945Z,34.76
2022-09-05T23:46:08.146Z,34.56
2022-09-05T23:48:35.144Z,35.00
2022-09-05T23:51:06.878Z,34.73
2022-09-05T23:53:33.822Z,34.85
2022-09-05T23:56:04.454Z,34.99
2022-09-05T23:58:31.888Z,34.92
